createdAt,value
2019-05-18T00:02:13.138Z,9.10
2019-05-18T00:07:20.747Z,9.18
2019-05-18T00:12:28.433Z,9.11
2019-05-18T00:17:36.046Z,8.75
2019-05-18T00:22:43.729Z,8.52
2019-05-18T00:27:51.333Z,8.88
2019-05-18T00:32:58.948Z,8.06
2019-05-18T00:38:06.574Z,8.55
2019-05-18T00:43:14.250Z,8.59
2019-05-18T00:48:21.869Z,8.76
2019-05-18T00:53:29.604Z,8.21
2019-05-18T00:58:37.195Z,8.12
2019-05-18T01:03:44.831Z,8.77
2019-05-18T01:08:52.460Z,7.79
2019-05-18T01:14:00.055Z,7.66
2019-05-18T01:19:07.646Z,7.76
2019-05-18T01:24:15.273Z,8.19
2019-05-18T01:29:22.867Z,8.92
2019-05-18T01:34:30.536Z,8.66
2019-05-18T01:39:38.131Z,8.55
2019-05-18T01:44:45.780Z,9.23
2019-05-18T01:49:53.363Z,10.11
2019-05-18T01:55:01.030Z,8.87
2019-05-18T02:00:08.655Z,9.59
2019-05-18T02:05:16.339Z,9.19
2019-05-18T02:10:24.035Z,9.34
2019-05-18T02:15:31.769Z,10.30
2019-05-18T02:20:39.358Z,11.42
2019-05-18T02:25:47.014Z,11.12
2019-05-18T02:30:54.632Z,12.25
2019-05-18T02:36:02.315Z,11.99
2019-05-18T02:41:09.934Z,12.33
2019-05-18T02:46:17.605Z,14.04
2019-05-18T02:51:25.213Z,13.88
2019-05-18T02:56:33.923Z,14.16
2019-05-18T03:01:41.517Z,14.00
2019-05-18T03:06:49.143Z,12.40
2019-05-18T03:11:56.750Z,12.75
2019-05-18T03:17:04.458Z,13.69
2019-05-18T03:22:12.066Z,12.69
2019-05-18T03:27:19.719Z,12.12
2019-05-18T03:32:27.330Z,11.29
2019-05-18T03:37:34.982Z,13.12
2019-05-18T03:42:42.568Z,12.02
2019-05-18T03:47:50.245Z,10.77
2019-05-18T03:52:57.853Z,10.01
2019-05-18T03:58:05.484Z,9.96
2019-05-18T04:03:13.103Z,9.14
2019-05-18T04:08:20.761Z,8.68
2019-05-18T04:13:28.380Z,8.62
2019-05-18T04:18:36.080Z,8.41
2019-05-18T04:23:43.689Z,8.19
2019-05-18T04:28:51.454Z,8.30
2019-05-18T04:33:58.987Z,8.22
2019-05-18T04:39:06.690Z,8.11
2019-05-18T04:44:14.269Z,9.05
2019-05-18T04:49:21.914Z,8.82
2019-05-18T04:54:29.514Z,9.30
2019-05-18T04:59:37.192Z,8.33
2019-05-18T05:04:44.778Z,8.80
2019-05-18T05:09:52.410Z,9.35
2019-05-18T05:14:59.995Z,8.24
2019-05-18T05:20:19.279Z,7.85
2019-05-18T05:25:14.794Z,7.95
2019-05-18T05:30:22.458Z,8.04
2019-05-18T05:35:30.057Z,8.14
2019-05-18T05:40:37.679Z,8.19
2019-05-18T05:45:45.282Z,7.66
2019-05-18T05:50:52.918Z,7.47
2019-05-18T05:56:00.514Z,6.77
2019-05-18T06:01:08.190Z,7.63
2019-05-18T06:06:15.763Z,6.68
2019-05-18T06:11:23.449Z,6.89
2019-05-18T06:16:31.026Z,7.36
2019-05-18T06:21:38.713Z,6.56
2019-05-18T06:26:46.318Z,7.16
2019-05-18T06:31:53.995Z,6.73
2019-05-18T06:37:01.616Z,7.21
2019-05-18T06:42:10.958Z,7.54
2019-05-18T06:47:16.398Z,6.79
2019-05-18T06:52:24.096Z,6.85
2019-05-18T06:57:31.702Z,6.99
2019-05-18T07:02:39.353Z,6.38
2019-05-18T07:07:47.006Z,6.64
2019-05-18T07:12:54.650Z,7.11
2019-05-18T07:18:02.248Z,7.46
2019-05-18T07:23:10.081Z,7.12
2019-05-18T07:28:17.675Z,7.21
2019-05-18T07:33:25.361Z,7.65
2019-05-18T07:38:32.986Z,8.07
2019-05-18T07:43:40.626Z,7.69
2019-05-18T07:48:48.227Z,8.17
2019-05-18T07:53:55.818Z,8.46
2019-05-18T07:59:03.413Z,8.48
2019-05-18T08:04:11.100Z,8.14
2019-05-18T08:09:18.697Z,8.14
2019-05-18T08:14:26.368Z,8.41
2019-05-18T08:19:33.973Z,8.28
2019-05-18T08:24:41.632Z,10.56
2019-05-18T08:29:49.243Z,9.55
2019-05-18T08:34:56.913Z,7.96
2019-05-18T08:40:04.526Z,7.76
2019-05-18T08:45:12.232Z,7.97
2019-05-18T08:50:19.849Z,8.73
2019-05-18T08:55:27.532Z,7.09
2019-05-18T09:00:35.128Z,6.91
2019-05-18T09:05:42.797Z,7.13
2019-05-18T09:10:50.358Z,7.30
2019-05-18T09:15:57.970Z,6.80
2019-05-18T09:21:05.569Z,7.07
2019-05-18T09:26:13.202Z,6.70
2019-05-18T09:31:20.792Z,6.71
2019-05-18T09:36:28.449Z,6.70
2019-05-18T09:41:36.036Z,7.71
2019-05-18T09:46:43.669Z,6.35
2019-05-18T09:51:51.276Z,6.71
2019-05-18T09:56:58.900Z,7.11
2019-05-18T10:02:06.499Z,6.54
2019-05-18T10:07:14.118Z,8.09
2019-05-18T10:12:24.577Z,7.39
2019-05-18T10:17:28.895Z,8.01
2019-05-18T10:22:36.505Z,8.21
2019-05-18T10:27:44.176Z,7.76
2019-05-18T10:32:51.763Z,8.61
2019-05-18T10:37:59.382Z,6.37
2019-05-18T10:43:06.967Z,6.98
2019-05-18T10:48:14.753Z,6.42
2019-05-18T10:53:28.673Z,6.81
2019-05-18T10:58:29.506Z,6.17
2019-05-18T11:03:37.152Z,6.39
2019-05-18T11:08:44.789Z,7.12
2019-05-18T11:13:52.391Z,6.21
2019-05-18T11:19:00.081Z,6.78
2019-05-18T11:24:07.687Z,6.93
2019-05-18T11:29:15.377Z,6.90
2019-05-18T11:34:22.963Z,6.87
2019-05-18T11:39:30.646Z,6.12
2019-05-18T11:44:38.234Z,8.04
2019-05-18T11:49:45.918Z,7.02
2019-05-18T11:54:53.514Z,7.96
2019-05-18T12:00:01.226Z,7.09
2019-05-18T12:05:08.834Z,8.52
2019-05-18T12:10:18.379Z,6.45
2019-05-18T12:15:23.585Z,6.96
2019-05-18T12:20:31.295Z,6.75
2019-05-18T12:25:38.879Z,8.06
2019-05-18T12:30:46.612Z,6.11
2019-05-18T12:35:54.185Z,6.15
2019-05-18T12:41:01.871Z,6.33
2019-05-18T12:46:09.454Z,6.53
2019-05-18T12:51:17.084Z,5.24
2019-05-18T12:56:24.671Z,7.49
2019-05-18T13:01:32.354Z,6.68
2019-05-18T13:06:39.938Z,7.67
2019-05-18T13:11:47.583Z,7.30
2019-05-18T13:16:55.181Z,5.83
2019-05-18T13:22:02.843Z,5.27
2019-05-18T13:27:10.457Z,6.32
2019-05-18T13:32:18.140Z,5.93
2019-05-18T13:37:25.745Z,9.96
2019-05-18T13:42:33.481Z,7.04
2019-05-18T13:47:41.062Z,8.44
2019-05-18T13:52:48.759Z,8.57
2019-05-18T13:57:56.366Z,6.10
2019-05-18T14:03:04.005Z,7.10
2019-05-18T14:08:15.787Z,5.09
2019-05-18T14:13:19.055Z,6.52
2019-05-18T14:18:26.626Z,6.01
2019-05-18T14:23:34.257Z,6.12
2019-05-18T14:28:41.848Z,6.62
2019-05-18T14:33:49.481Z,5.08
2019-05-18T14:38:57.128Z,6.46
2019-05-18T14:44:04.750Z,5.52
2019-05-18T14:49:12.339Z,6.23
2019-05-18T14:54:24.665Z,4.96
2019-05-18T14:59:27.268Z,5.81
2019-05-18T15:04:34.914Z,5.50
2019-05-18T15:09:42.529Z,5.64
2019-05-18T15:14:50.243Z,5.36
2019-05-18T15:19:57.936Z,6.25
2019-05-18T15:25:05.539Z,7.07
2019-05-18T15:30:13.127Z,6.39
2019-05-18T15:35:20.758Z,5.96
2019-05-18T15:40:28.371Z,5.91
2019-05-18T15:45:36.001Z,5.71
2019-05-18T15:50:43.624Z,4.99
2019-05-18T15:56:04.808Z,4.31
2019-05-18T16:00:58.529Z,3.86
2019-05-18T16:06:06.201Z,6.16
2019-05-18T16:11:13.860Z,3.61
2019-05-18T16:16:21.630Z,3.72
2019-05-18T16:21:29.217Z,3.62
2019-05-18T16:26:36.872Z,3.52
2019-05-18T16:31:44.469Z,5.22
2019-05-18T16:36:52.103Z,3.75
2019-05-18T16:41:59.688Z,3.19
2019-05-18T16:47:07.321Z,2.87
2019-05-18T16:52:14.922Z,2.77
2019-05-18T16:57:22.556Z,3.23
2019-05-18T17:02:31.997Z,3.26
2019-05-18T17:07:37.382Z,3.82
2019-05-18T17:12:44.982Z,4.09
2019-05-18T17:17:52.631Z,4.09
2019-05-18T17:23:00.211Z,4.53
2019-05-18T17:28:07.857Z,4.51
2019-05-18T17:33:15.455Z,4.41
2019-05-18T17:38:23.130Z,4.41
2019-05-18T17:43:30.744Z,6.10
2019-05-18T17:48:38.445Z,5.79
2019-05-18T17:53:46.039Z,7.12
2019-05-18T17:58:53.735Z,6.05
2019-05-18T18:04:01.337Z,6.51
2019-05-18T18:09:08.965Z,6.75
2019-05-18T18:14:16.559Z,7.58
2019-05-18T18:19:24.180Z,7.50
2019-05-18T18:24:31.797Z,7.91
2019-05-18T18:29:39.440Z,7.03
2019-05-18T18:34:47.049Z,6.62
2019-05-18T18:39:54.687Z,7.00
2019-05-18T18:45:02.336Z,7.99
2019-05-18T18:50:09.994Z,6.50
2019-05-18T18:55:17.624Z,7.64
2019-05-18T19:00:25.301Z,8.51
2019-05-18T19:05:32.908Z,9.14
2019-05-18T19:10:40.588Z,10.07
2019-05-18T19:15:48.184Z,8.69
2019-05-18T19:20:55.857Z,7.97
2019-05-18T19:26:03.475Z,7.80
2019-05-18T19:31:11.134Z,8.97
2019-05-18T19:36:18.773Z,6.76
2019-05-18T19:41:26.424Z,8.20
2019-05-18T19:46:34.040Z,7.98
2019-05-18T19:51:41.681Z,7.89
2019-05-18T19:56:49.305Z,7.64
2019-05-18T20:01:56.980Z,6.61
2019-05-18T20:07:04.599Z,6.95
2019-05-18T20:12:12.282Z,7.31
2019-05-18T20:17:19.894Z,6.19
2019-05-18T20:22:27.637Z,5.90
2019-05-18T20:27:35.285Z,5.71
2019-05-18T20:32:42.927Z,6.22
2019-05-18T20:37:50.539Z,6.22
2019-05-18T20:42:58.186Z,6.60
2019-05-18T20:48:05.798Z,5.74
2019-05-18T20:53:13.450Z,6.25
2019-05-18T20:58:21.035Z,6.81
2019-05-18T21:03:28.714Z,5.87
2019-05-18T21:08:36.314Z,6.16
2019-05-18T21:13:43.980Z,6.98
2019-05-18T21:18:51.567Z,6.41
2019-05-18T21:23:59.251Z,7.45
2019-05-18T21:29:06.710Z,7.51
2019-05-18T21:34:14.369Z,6.93
2019-05-18T21:39:21.970Z,7.34
2019-05-18T21:44:29.653Z,7.32
2019-05-18T21:49:37.242Z,7.84
2019-05-18T21:54:44.872Z,7.65
2019-05-18T21:59:52.496Z,7.51
2019-05-18T22:05:00.143Z,7.16
2019-05-18T22:10:07.775Z,6.91
2019-05-18T22:15:15.484Z,6.77
2019-05-18T22:20:23.102Z,6.68
2019-05-18T22:25:30.740Z,6.73
2019-05-18T22:30:38.345Z,6.49
2019-05-18T22:35:45.989Z,5.69
2019-05-18T22:40:53.585Z,5.83
2019-05-18T22:46:01.274Z,5.70
2019-05-18T22:51:08.877Z,6.46
2019-05-18T22:56:16.506Z,6.43
2019-05-18T23:01:24.095Z,5.96
2019-05-18T23:06:31.902Z,6.97
2019-05-18T23:11:39.488Z,6.28
2019-05-18T23:16:47.120Z,6.13
2019-05-18T23:21:54.723Z,7.40
2019-05-18T23:27:02.386Z,7.20
2019-05-18T23:32:10.002Z,8.25
2019-05-18T23:37:17.671Z,9.19
2019-05-18T23:42:25.268Z,10.10
2019-05-18T23:47:32.920Z,9.77
2019-05-18T23:52:40.523Z,10.45
2019-05-18T23:57:48.232Z,10.83
